sensor_id;sensor_type;location;lat;lon;timestamp;P1;durP1;ratioP1;P2;durP2;ratioP2
2610;SDS011;5612;51.134;17.058;2023-04-24T00:00:47;15.87;;;14.57;;
2610;SDS011;5612;51.134;17.058;2023-04-24T00:03:16;16.63;;;14.90;;
2610;SDS011;5612;51.134;17.058;2023-04-24T00:05:47;17.50;;;15.73;;
2610;SDS011;5612;51.134;17.058;2023-04-24T00:08:16;15.40;;;13.77;;
2610;SDS011;5612;51.134;17.058;2023-04-24T00:10:45;15.77;;;14.40;;
2610;SDS011;5612;51.134;17.058;2023-04-24T00:13:15;15.53;;;14.23;;
2610;SDS011;5612;51.134;17.058;2023-04-24T00:15:44;15.77;;;14.53;;
2610;SDS011;5612;51.134;17.058;2023-04-24T00:18:12;16.43;;;15.07;;
2610;SDS011;5612;51.134;17.058;2023-04-24T00:20:41;16.13;;;14.53;;
2610;SDS011;5612;51.134;17.058;2023-04-24T00:23:10;16.87;;;15.47;;
2610;SDS011;5612;51.134;17.058;2023-04-24T00:25:39;17.53;;;15.93;;
2610;SDS011;5612;51.134;17.058;2023-04-24T00:28:08;16.73;;;15.23;;
2610;SDS011;5612;51.134;17.058;2023-04-24T00:30:38;18.70;;;17.03;;
2610;SDS011;5612;51.134;17.058;2023-04-24T00:33:07;17.77;;;16.07;;
2610;SDS011;5612;51.134;17.058;2023-04-24T00:35:36;20.07;;;18.07;;
2610;SDS011;5612;51.134;17.058;2023-04-24T00:38:05;18.40;;;16.60;;
2610;SDS011;5612;51.134;17.058;2023-04-24T00:40:33;17.70;;;16.10;;
2610;SDS011;5612;51.134;17.058;2023-04-24T00:43:02;17.20;;;15.67;;
2610;SDS011;5612;51.134;17.058;2023-04-24T00:45:32;17.60;;;16.10;;
2610;SDS011;5612;51.134;17.058;2023-04-24T00:48:03;20.40;;;18.50;;
2610;SDS011;5612;51.134;17.058;2023-04-24T00:50:32;18.97;;;17.37;;
2610;SDS011;5612;51.134;17.058;2023-04-24T00:53:03;19.43;;;17.43;;
2610;SDS011;5612;51.134;17.058;2023-04-24T00:55:32;19.30;;;17.50;;
2610;SDS011;5612;51.134;17.058;2023-04-24T00:58:01;19.60;;;17.80;;
2610;SDS011;5612;51.134;17.058;2023-04-24T01:00:30;18.33;;;16.73;;
2610;SDS011;5612;51.134;17.058;2023-04-24T01:02:59;19.50;;;17.47;;
2610;SDS011;5612;51.134;17.058;2023-04-24T01:05:30;20.50;;;18.63;;
2610;SDS011;5612;51.134;17.058;2023-04-24T01:08:00;19.63;;;17.90;;
2610;SDS011;5612;51.134;17.058;2023-04-24T01:10:31;18.47;;;16.77;;
2610;SDS011;5612;51.134;17.058;2023-04-24T01:13:02;20.07;;;17.97;;
2610;SDS011;5612;51.134;17.058;2023-04-24T01:15:31;19.97;;;18.27;;
2610;SDS011;5612;51.134;17.058;2023-04-24T01:17:59;20.17;;;18.17;;
2610;SDS011;5612;51.134;17.058;2023-04-24T01:20:30;20.47;;;18.57;;
2610;SDS011;5612;51.134;17.058;2023-04-24T01:23:01;19.53;;;17.63;;
2610;SDS011;5612;51.134;17.058;2023-04-24T01:25:29;21.00;;;18.90;;
2610;SDS011;5612;51.134;17.058;2023-04-24T01:27:59;21.13;;;19.13;;
2610;SDS011;5612;51.134;17.058;2023-04-24T01:30:28;21.53;;;19.37;;
2610;SDS011;5612;51.134;17.058;2023-04-24T01:32:57;20.53;;;18.77;;
2610;SDS011;5612;51.134;17.058;2023-04-24T01:35:27;19.20;;;17.40;;
2610;SDS011;5612;51.134;17.058;2023-04-24T01:37:55;19.20;;;17.50;;
2610;SDS011;5612;51.134;17.058;2023-04-24T01:40:26;19.87;;;18.23;;
2610;SDS011;5612;51.134;17.058;2023-04-24T01:42:55;21.20;;;19.20;;
2610;SDS011;5612;51.134;17.058;2023-04-24T01:45:25;19.80;;;18.10;;
2610;SDS011;5612;51.134;17.058;2023-04-24T01:47:54;17.10;;;15.77;;
2610;SDS011;5612;51.134;17.058;2023-04-24T01:50:23;20.83;;;18.83;;
2610;SDS011;5612;51.134;17.058;2023-04-24T01:52:52;20.20;;;18.40;;
2610;SDS011;5612;51.134;17.058;2023-04-24T01:55:21;20.83;;;19.00;;
2610;SDS011;5612;51.134;17.058;2023-04-24T01:57:51;21.23;;;19.17;;
2610;SDS011;5612;51.134;17.058;2023-04-24T02:00:22;23.50;;;20.30;;
2610;SDS011;5612;51.134;17.058;2023-04-24T02:02:51;21.30;;;19.30;;
2610;SDS011;5612;51.134;17.058;2023-04-24T02:05:20;21.83;;;19.80;;
2610;SDS011;5612;51.134;17.058;2023-04-24T02:07:49;19.83;;;18.10;;
2610;SDS011;5612;51.134;17.058;2023-04-24T02:10:17;21.03;;;19.17;;
2610;SDS011;5612;51.134;17.058;2023-04-24T02:12:46;20.60;;;18.70;;
2610;SDS011;5612;51.134;17.058;2023-04-24T02:15:16;20.10;;;18.30;;
2610;SDS011;5612;51.134;17.058;2023-04-24T02:17:45;21.70;;;19.70;;
2610;SDS011;5612;51.134;17.058;2023-04-24T02:20:14;21.00;;;19.13;;
2610;SDS011;5612;51.134;17.058;2023-04-24T02:22:44;19.90;;;18.10;;
2610;SDS011;5612;51.134;17.058;2023-04-24T02:25:12;23.07;;;20.90;;
2610;SDS011;5612;51.134;17.058;2023-04-24T02:27:41;21.27;;;19.37;;
2610;SDS011;5612;51.134;17.058;2023-04-24T02:30:10;23.77;;;21.53;;
2610;SDS011;5612;51.134;17.058;2023-04-24T02:32:40;23.33;;;21.10;;
2610;SDS011;5612;51.134;17.058;2023-04-24T02:35:09;21.70;;;19.50;;
2610;SDS011;5612;51.134;17.058;2023-04-24T02:37:38;22.47;;;20.57;;
2610;SDS011;5612;51.134;17.058;2023-04-24T02:40:07;20.83;;;19.07;;
2610;SDS011;5612;51.134;17.058;2023-04-24T02:42:37;22.53;;;20.43;;
2610;SDS011;5612;51.134;17.058;2023-04-24T02:45:06;22.83;;;20.93;;
2610;SDS011;5612;51.134;17.058;2023-04-24T02:47:35;21.20;;;19.30;;
2610;SDS011;5612;51.134;17.058;2023-04-24T02:50:07;21.87;;;19.77;;
2610;SDS011;5612;51.134;17.058;2023-04-24T02:52:36;21.87;;;19.47;;
2610;SDS011;5612;51.134;17.058;2023-04-24T02:55:05;21.23;;;19.33;;
2610;SDS011;5612;51.134;17.058;2023-04-24T02:57:34;21.67;;;19.70;;
2610;SDS011;5612;51.134;17.058;2023-04-24T03:00:03;20.83;;;19.07;;
2610;SDS011;5612;51.134;17.058;2023-04-24T03:02:33;20.80;;;18.90;;
2610;SDS011;5612;51.134;17.058;2023-04-24T03:05:02;21.17;;;19.17;;
2610;SDS011;5612;51.134;17.058;2023-04-24T03:07:33;22.07;;;19.80;;
2610;SDS011;5612;51.134;17.058;2023-04-24T03:10:02;20.80;;;18.87;;
2610;SDS011;5612;51.134;17.058;2023-04-24T03:12:31;22.13;;;19.90;;
2610;SDS011;5612;51.134;17.058;2023-04-24T03:15:00;21.43;;;19.50;;
2610;SDS011;5612;51.134;17.058;2023-04-24T03:17:28;22.87;;;20.60;;
2610;SDS011;5612;51.134;17.058;2023-04-24T03:19:57;22.43;;;20.50;;
2610;SDS011;5612;51.134;17.058;2023-04-24T03:22:26;21.87;;;19.83;;
2610;SDS011;5612;51.134;17.058;2023-04-24T03:24:56;23.27;;;20.97;;
2610;SDS011;5612;51.134;17.058;2023-04-24T03:27:24;20.00;;;18.17;;
2610;SDS011;5612;51.134;17.058;2023-04-24T03:29:53;20.80;;;18.80;;
2610;SDS011;5612;51.134;17.058;2023-04-24T03:32:22;19.33;;;17.33;;
2610;SDS011;5612;51.134;17.058;2023-04-24T03:34:51;19.50;;;17.60;;
2610;SDS011;5612;51.134;17.058;2023-04-24T03:37:20;18.97;;;17.30;;
2610;SDS011;5612;51.134;17.058;2023-04-24T03:39:48;20.50;;;18.70;;
2610;SDS011;5612;51.134;17.058;2023-04-24T03:42:19;19.20;;;17.50;;
2610;SDS011;5612;51.134;17.058;2023-04-24T03:44:47;20.30;;;18.40;;
2610;SDS011;5612;51.134;17.058;2023-04-24T03:47:16;20.03;;;18.10;;
2610;SDS011;5612;51.134;17.058;2023-04-24T03:49:45;18.33;;;16.77;;
2610;SDS011;5612;51.134;17.058;2023-04-24T03:52:13;19.50;;;17.80;;
2610;SDS011;5612;51.134;17.058;2023-04-24T03:54:42;21.87;;;19.77;;
2610;SDS011;5612;51.134;17.058;2023-04-24T03:57:11;19.63;;;17.93;;
2610;SDS011;5612;51.134;17.058;2023-04-24T03:59:41;20.60;;;18.73;;
2610;SDS011;5612;51.134;17.058;2023-04-24T04:02:10;20.60;;;18.80;;
2610;SDS011;5612;51.134;17.058;2023-04-24T04:04:39;20.13;;;18.43;;
2610;SDS011;5612;51.134;17.058;2023-04-24T04:07:08;21.03;;;19.23;;
2610;SDS011;5612;51.134;17.058;2023-04-24T04:09:37;19.53;;;17.67;;
2610;SDS011;5612;51.134;17.058;2023-04-24T04:12:07;21.17;;;19.30;;
2610;SDS011;5612;51.134;17.058;2023-04-24T04:14:36;21.10;;;19.10;;
2610;SDS011;5612;51.134;17.058;2023-04-24T04:17:06;20.03;;;18.33;;
2610;SDS011;5612;51.134;17.058;2023-04-24T04:19:34;20.00;;;18.23;;
2610;SDS011;5612;51.134;17.058;2023-04-24T04:22:03;20.47;;;18.67;;
2610;SDS011;5612;51.134;17.058;2023-04-24T04:24:34;20.07;;;18.27;;
2610;SDS011;5612;51.134;17.058;2023-04-24T04:27:04;20.03;;;18.23;;
2610;SDS011;5612;51.134;17.058;2023-04-24T04:29:33;19.87;;;18.10;;
2610;SDS011;5612;51.134;17.058;2023-04-24T04:32:02;19.17;;;17.53;;
2610;SDS011;5612;51.134;17.058;2023-04-24T04:34:33;19.90;;;18.10;;
2610;SDS011;5612;51.134;17.058;2023-04-24T04:37:04;18.47;;;16.97;;
2610;SDS011;5612;51.134;17.058;2023-04-24T04:39:32;19.80;;;18.00;;
2610;SDS011;5612;51.134;17.058;2023-04-24T04:42:01;20.00;;;18.10;;
2610;SDS011;5612;51.134;17.058;2023-04-24T04:44:30;17.50;;;15.80;;
2610;SDS011;5612;51.134;17.058;2023-04-24T04:46:59;17.40;;;16.00;;
2610;SDS011;5612;51.134;17.058;2023-04-24T04:49:30;18.23;;;16.30;;
2610;SDS011;5612;51.134;17.058;2023-04-24T04:52:01;18.93;;;17.10;;
2610;SDS011;5612;51.134;17.058;2023-04-24T04:54:29;19.50;;;17.70;;
2610;SDS011;5612;51.134;17.058;2023-04-24T04:56:58;18.87;;;17.07;;
2610;SDS011;5612;51.134;17.058;2023-04-24T04:59:29;19.97;;;18.03;;
2610;SDS011;5612;51.134;17.058;2023-04-24T05:01:58;18.10;;;16.50;;
2610;SDS011;5612;51.134;17.058;2023-04-24T05:04:27;18.87;;;17.27;;
2610;SDS011;5612;51.134;17.058;2023-04-24T05:06:58;18.60;;;17.00;;
2610;SDS011;5612;51.134;17.058;2023-04-24T05:09:27;17.50;;;15.97;;
2610;SDS011;5612;51.134;17.058;2023-04-24T05:11:56;18.13;;;16.53;;
2610;SDS011;5612;51.134;17.058;2023-04-24T05:14:24;16.83;;;15.33;;
2610;SDS011;5612;51.134;17.058;2023-04-24T05:16:53;18.47;;;16.87;;
2610;SDS011;5612;51.134;17.058;2023-04-24T05:19:22;19.00;;;17.03;;
2610;SDS011;5612;51.134;17.058;2023-04-24T05:21:50;18.87;;;16.97;;
2610;SDS011;5612;51.134;17.058;2023-04-24T05:24:20;17.07;;;15.43;;
2610;SDS011;5612;51.134;17.058;2023-04-24T05:26:49;16.60;;;15.13;;
2610;SDS011;5612;51.134;17.058;2023-04-24T05:29:18;14.67;;;13.33;;
2610;SDS011;5612;51.134;17.058;2023-04-24T05:31:48;15.13;;;13.83;;
2610;SDS011;5612;51.134;17.058;2023-04-24T05:34:16;14.63;;;12.93;;
2610;SDS011;5612;51.134;17.058;2023-04-24T05:36:45;13.33;;;12.23;;
2610;SDS011;5612;51.134;17.058;2023-04-24T05:39:14;13.17;;;12.00;;
2610;SDS011;5612;51.134;17.058;2023-04-24T05:41:44;13.00;;;12.00;;
2610;SDS011;5612;51.134;17.058;2023-04-24T05:44:13;12.40;;;11.30;;
2610;SDS011;5612;51.134;17.058;2023-04-24T05:46:41;13.23;;;12.03;;
2610;SDS011;5612;51.134;17.058;2023-04-24T05:49:10;11.93;;;11.03;;
2610;SDS011;5612;51.134;17.058;2023-04-24T05:51:39;12.17;;;11.10;;
2610;SDS011;5612;51.134;17.058;2023-04-24T05:54:08;11.20;;;10.30;;
2610;SDS011;5612;51.134;17.058;2023-04-24T05:56:38;10.60;;;9.73;;
2610;SDS011;5612;51.134;17.058;2023-04-24T05:59:10;10.90;;;10.00;;
2610;SDS011;5612;51.134;17.058;2023-04-24T06:01:39;10.67;;;9.67;;
2610;SDS011;5612;51.134;17.058;2023-04-24T06:04:08;10.23;;;9.43;;
2610;SDS011;5612;51.134;17.058;2023-04-24T06:06:37;11.53;;;10.53;;
2610;SDS011;5612;51.134;17.058;2023-04-24T06:09:06;10.73;;;9.70;;
2610;SDS011;5612;51.134;17.058;2023-04-24T06:11:35;11.33;;;10.43;;
2610;SDS011;5612;51.134;17.058;2023-04-24T06:14:04;11.43;;;9.97;;
2610;SDS011;5612;51.134;17.058;2023-04-24T06:16:34;10.87;;;10.00;;
2610;SDS011;5612;51.134;17.058;2023-04-24T06:19:03;10.17;;;9.40;;
2610;SDS011;5612;51.134;17.058;2023-04-24T06:21:31;11.57;;;10.57;;
2610;SDS011;5612;51.134;17.058;2023-04-24T06:24:00;10.40;;;9.60;;
2610;SDS011;5612;51.134;17.058;2023-04-24T06:26:30;10.57;;;9.50;;
2610;SDS011;5612;51.134;17.058;2023-04-24T06:28:59;10.83;;;9.83;;
2610;SDS011;5612;51.134;17.058;2023-04-24T06:31:28;9.60;;;8.90;;
2610;SDS011;5612;51.134;17.058;2023-04-24T06:34:05;11.30;;;9.60;;
2610;SDS011;5612;51.134;17.058;2023-04-24T06:36:33;10.20;;;9.30;;
2610;SDS011;5612;51.134;17.058;2023-04-24T06:39:02;10.70;;;9.83;;
2610;SDS011;5612;51.134;17.058;2023-04-24T06:41:31;10.47;;;9.47;;
2610;SDS011;5612;51.134;17.058;2023-04-24T06:44:00;11.00;;;9.97;;
2610;SDS011;5612;51.134;17.058;2023-04-24T06:46:29;8.87;;;8.03;;
2610;SDS011;5612;51.134;17.058;2023-04-24T06:49:00;8.97;;;8.27;;
2610;SDS011;5612;51.134;17.058;2023-04-24T06:51:31;9.80;;;8.93;;
2610;SDS011;5612;51.134;17.058;2023-04-24T06:54:01;9.37;;;8.57;;
2610;SDS011;5612;51.134;17.058;2023-04-24T06:56:30;9.33;;;8.63;;
2610;SDS011;5612;51.134;17.058;2023-04-24T06:59:00;10.67;;;8.20;;
2610;SDS011;5612;51.134;17.058;2023-04-24T07:01:29;10.47;;;9.23;;
2610;SDS011;5612;51.134;17.058;2023-04-24T07:03:58;12.73;;;9.33;;
2610;SDS011;5612;51.134;17.058;2023-04-24T07:06:31;9.03;;;8.33;;
2610;SDS011;5612;51.134;17.058;2023-04-24T07:09:00;8.97;;;8.17;;
2610;SDS011;5612;51.134;17.058;2023-04-24T07:11:30;10.10;;;9.27;;
2610;SDS011;5612;51.134;17.058;2023-04-24T07:13:59;10.63;;;9.53;;
2610;SDS011;5612;51.134;17.058;2023-04-24T07:16:28;10.73;;;8.87;;
2610;SDS011;5612;51.134;17.058;2023-04-24T07:18:57;8.93;;;8.20;;
2610;SDS011;5612;51.134;17.058;2023-04-24T07:21:27;9.87;;;8.60;;
2610;SDS011;5612;51.134;17.058;2023-04-24T07:23:59;9.40;;;8.47;;
2610;SDS011;5612;51.134;17.058;2023-04-24T07:26:29;9.10;;;8.40;;
2610;SDS011;5612;51.134;17.058;2023-04-24T07:28:58;9.33;;;8.50;;
2610;SDS011;5612;51.134;17.058;2023-04-24T07:31:27;10.07;;;9.17;;
2610;SDS011;5612;51.134;17.058;2023-04-24T07:33:56;10.03;;;7.83;;
2610;SDS011;5612;51.134;17.058;2023-04-24T07:36:25;9.00;;;8.30;;
2610;SDS011;5612;51.134;17.058;2023-04-24T07:38:54;9.50;;;8.53;;
2610;SDS011;5612;51.134;17.058;2023-04-24T07:41:25;7.90;;;7.30;;
2610;SDS011;5612;51.134;17.058;2023-04-24T07:43:54;9.37;;;8.43;;
2610;SDS011;5612;51.134;17.058;2023-04-24T07:46:25;9.37;;;8.47;;
2610;SDS011;5612;51.134;17.058;2023-04-24T07:48:57;8.83;;;8.10;;
2610;SDS011;5612;51.134;17.058;2023-04-24T07:51:39;11.73;;;9.30;;
2610;SDS011;5612;51.134;17.058;2023-04-24T07:54:08;9.40;;;8.53;;
2610;SDS011;5612;51.134;17.058;2023-04-24T07:56:38;9.37;;;8.40;;
2610;SDS011;5612;51.134;17.058;2023-04-24T07:59:09;9.03;;;8.43;;
2610;SDS011;5612;51.134;17.058;2023-04-24T08:01:38;11.30;;;10.30;;
2610;SDS011;5612;51.134;17.058;2023-04-24T08:04:07;13.03;;;11.77;;
2610;SDS011;5612;51.134;17.058;2023-04-24T08:06:37;11.03;;;10.13;;
2610;SDS011;5612;51.134;17.058;2023-04-24T08:09:05;10.33;;;9.53;;
2610;SDS011;5612;51.134;17.058;2023-04-24T08:11:35;9.50;;;8.70;;
2610;SDS011;5612;51.134;17.058;2023-04-24T08:14:05;10.07;;;9.10;;
2610;SDS011;5612;51.134;17.058;2023-04-24T08:16:34;8.73;;;8.00;;
2610;SDS011;5612;51.134;17.058;2023-04-24T08:19:03;19.57;;;17.50;;
2610;SDS011;5612;51.134;17.058;2023-04-24T08:21:32;9.83;;;8.93;;
2610;SDS011;5612;51.134;17.058;2023-04-24T08:24:01;7.87;;;7.27;;
2610;SDS011;5612;51.134;17.058;2023-04-24T08:26:31;10.50;;;9.57;;
2610;SDS011;5612;51.134;17.058;2023-04-24T08:29:01;8.13;;;7.23;;
2610;SDS011;5612;51.134;17.058;2023-04-24T08:31:31;8.97;;;8.23;;
2610;SDS011;5612;51.134;17.058;2023-04-24T08:34:00;12.47;;;8.70;;
2610;SDS011;5612;51.134;17.058;2023-04-24T08:36:29;8.20;;;7.50;;
2610;SDS011;5612;51.134;17.058;2023-04-24T08:39:13;8.77;;;7.90;;
2610;SDS011;5612;51.134;17.058;2023-04-24T08:41:42;13.80;;;12.50;;
2610;SDS011;5612;51.134;17.058;2023-04-24T08:44:12;10.67;;;9.67;;
2610;SDS011;5612;51.134;17.058;2023-04-24T08:46:44;9.53;;;8.83;;
2610;SDS011;5612;51.134;17.058;2023-04-24T08:49:15;8.50;;;7.70;;
2610;SDS011;5612;51.134;17.058;2023-04-24T08:51:45;8.13;;;7.53;;
2610;SDS011;5612;51.134;17.058;2023-04-24T08:54:14;9.30;;;8.37;;
2610;SDS011;5612;51.134;17.058;2023-04-24T08:56:44;9.10;;;8.40;;
2610;SDS011;5612;51.134;17.058;2023-04-24T08:59:15;7.50;;;6.90;;
2610;SDS011;5612;51.134;17.058;2023-04-24T09:01:45;7.27;;;6.57;;
2610;SDS011;5612;51.134;17.058;2023-04-24T09:04:16;6.40;;;5.90;;
2610;SDS011;5612;51.134;17.058;2023-04-24T09:06:49;6.63;;;6.13;;
2610;SDS011;5612;51.134;17.058;2023-04-24T09:09:18;6.40;;;5.80;;
2610;SDS011;5612;51.134;17.058;2023-04-24T09:11:48;5.87;;;5.13;;
2610;SDS011;5612;51.134;17.058;2023-04-24T09:14:17;6.30;;;5.90;;
2610;SDS011;5612;51.134;17.058;2023-04-24T09:16:49;4.97;;;4.67;;
2610;SDS011;5612;51.134;17.058;2023-04-24T09:19:18;4.70;;;4.40;;
2610;SDS011;5612;51.134;17.058;2023-04-24T09:21:48;6.00;;;5.03;;
2610;SDS011;5612;51.134;17.058;2023-04-24T09:24:18;4.40;;;4.20;;
2610;SDS011;5612;51.134;17.058;2023-04-24T09:26:57;4.90;;;4.60;;
2610;SDS011;5612;51.134;17.058;2023-04-24T09:29:28;5.90;;;5.50;;
2610;SDS011;5612;51.134;17.058;2023-04-24T09:32:00;5.23;;;4.83;;
2610;SDS011;5612;51.134;17.058;2023-04-24T09:34:48;4.03;;;3.72;;
2610;SDS011;5612;51.134;17.058;2023-04-24T09:37:27;6.63;;;5.10;;
2610;SDS011;5612;51.134;17.058;2023-04-24T09:40:10;5.30;;;5.00;;
2610;SDS011;5612;51.134;17.058;2023-04-24T09:42:43;6.13;;;5.72;;
2610;SDS011;5612;51.134;17.058;2023-04-24T09:45:12;4.22;;;3.92;;
2610;SDS011;5612;51.134;17.058;2023-04-24T09:47:43;7.30;;;5.22;;
2610;SDS011;5612;51.134;17.058;2023-04-24T09:50:13;6.53;;;6.03;;
2610;SDS011;5612;51.134;17.058;2023-04-24T09:52:46;5.27;;;4.97;;
2610;SDS011;5612;51.134;17.058;2023-04-24T09:55:23;5.53;;;5.23;;
2610;SDS011;5612;51.134;17.058;2023-04-24T09:57:53;7.63;;;5.83;;
2610;SDS011;5612;51.134;17.058;2023-04-24T10:00:24;6.43;;;5.83;;
2610;SDS011;5612;51.134;17.058;2023-04-24T10:02:58;7.57;;;7.03;;
2610;SDS011;5612;51.134;17.058;2023-04-24T10:05:29;7.00;;;6.50;;
2610;SDS011;5612;51.134;17.058;2023-04-24T10:08:02;7.03;;;6.50;;
2610;SDS011;5612;51.134;17.058;2023-04-24T10:10:33;5.87;;;5.47;;
2610;SDS011;5612;51.134;17.058;2023-04-24T10:13:05;6.83;;;6.23;;
2610;SDS011;5612;51.134;17.058;2023-04-24T10:15:35;6.20;;;5.80;;
2610;SDS011;5612;51.134;17.058;2023-04-24T10:18:06;7.20;;;6.70;;
2610;SDS011;5612;51.134;17.058;2023-04-24T10:20:35;6.70;;;6.27;;
2610;SDS011;5612;51.134;17.058;2023-04-24T10:23:05;8.13;;;6.87;;
2610;SDS011;5612;51.134;17.058;2023-04-24T10:25:35;7.40;;;6.80;;
2610;SDS011;5612;51.134;17.058;2023-04-24T10:28:04;7.57;;;6.93;;
2610;SDS011;5612;51.134;17.058;2023-04-24T10:30:36;8.80;;;8.10;;
2610;SDS011;5612;51.134;17.058;2023-04-24T10:33:07;7.83;;;7.30;;
2610;SDS011;5612;51.134;17.058;2023-04-24T10:35:39;7.80;;;7.20;;
2610;SDS011;5612;51.134;17.058;2023-04-24T10:38:11;8.50;;;7.73;;
2610;SDS011;5612;51.134;17.058;2023-04-24T10:40:42;7.80;;;7.20;;
2610;SDS011;5612;51.134;17.058;2023-04-24T10:43:11;7.60;;;7.03;;
2610;SDS011;5612;51.134;17.058;2023-04-24T10:46:00;6.77;;;6.37;;
2610;SDS011;5612;51.134;17.058;2023-04-24T10:48:31;7.00;;;6.40;;
2610;SDS011;5612;51.134;17.058;2023-04-24T10:51:00;7.13;;;6.60;;
2610;SDS011;5612;51.134;17.058;2023-04-24T10:53:29;7.07;;;6.47;;
2610;SDS011;5612;51.134;17.058;2023-04-24T10:56:00;7.53;;;6.73;;
2610;SDS011;5612;51.134;17.058;2023-04-24T10:58:38;7.60;;;7.00;;
2610;SDS011;5612;51.134;17.058;2023-04-24T11:01:23;7.00;;;6.50;;
2610;SDS011;5612;51.134;17.058;2023-04-24T11:03:56;6.80;;;6.30;;
2610;SDS011;5612;51.134;17.058;2023-04-24T11:06:29;6.63;;;6.20;;
2610;SDS011;5612;51.134;17.058;2023-04-24T11:09:02;6.23;;;5.83;;
2610;SDS011;5612;51.134;17.058;2023-04-24T11:11:32;6.33;;;5.73;;
2610;SDS011;5612;51.134;17.058;2023-04-24T11:14:06;7.27;;;6.70;;
2610;SDS011;5612;51.134;17.058;2023-04-24T11:16:38;6.27;;;5.87;;
2610;SDS011;5612;51.134;17.058;2023-04-24T11:19:20;8.50;;;7.70;;
2610;SDS011;5612;51.134;17.058;2023-04-24T11:21:55;8.33;;;7.67;;
2610;SDS011;5612;51.134;17.058;2023-04-24T11:24:30;8.00;;;7.20;;
2610;SDS011;5612;51.134;17.058;2023-04-24T11:27:05;9.10;;;8.40;;
2610;SDS011;5612;51.134;17.058;2023-04-24T11:29:41;9.20;;;8.40;;
2610;SDS011;5612;51.134;17.058;2023-04-24T11:32:15;9.20;;;8.60;;
2610;SDS011;5612;51.134;17.058;2023-04-24T11:34:53;8.30;;;7.70;;
2610;SDS011;5612;51.134;17.058;2023-04-24T11:37:24;9.37;;;8.47;;
2610;SDS011;5612;51.134;17.058;2023-04-24T11:39:55;8.47;;;7.87;;
2610;SDS011;5612;51.134;17.058;2023-04-24T11:42:26;8.40;;;7.73;;
2610;SDS011;5612;51.134;17.058;2023-04-24T11:44:55;8.50;;;7.90;;
2610;SDS011;5612;51.134;17.058;2023-04-24T11:47:28;9.57;;;8.80;;
2610;SDS011;5612;51.134;17.058;2023-04-24T11:49:59;9.03;;;8.43;;
2610;SDS011;5612;51.134;17.058;2023-04-24T11:52:29;8.00;;;7.30;;
2610;SDS011;5612;51.134;17.058;2023-04-24T11:54:58;7.20;;;6.70;;
2610;SDS011;5612;51.134;17.058;2023-04-24T11:57:28;7.10;;;6.60;;
2610;SDS011;5612;51.134;17.058;2023-04-24T12:00:00;7.77;;;7.07;;
2610;SDS011;5612;51.134;17.058;2023-04-24T12:02:31;6.70;;;6.30;;
2610;SDS011;5612;51.134;17.058;2023-04-24T12:05:07;7.63;;;7.03;;
2610;SDS011;5612;51.134;17.058;2023-04-24T12:07:40;6.77;;;6.37;;
2610;SDS011;5612;51.134;17.058;2023-04-24T12:10:10;5.93;;;5.53;;
2610;SDS011;5612;51.134;17.058;2023-04-24T12:12:39;8.20;;;7.70;;
2610;SDS011;5612;51.134;17.058;2023-04-24T12:15:08;8.07;;;7.47;;
2610;SDS011;5612;51.134;17.058;2023-04-24T12:17:41;9.83;;;9.13;;
2610;SDS011;5612;51.134;17.058;2023-04-24T12:20:12;8.43;;;7.80;;
2610;SDS011;5612;51.134;17.058;2023-04-24T12:22:43;7.47;;;6.97;;
2610;SDS011;5612;51.134;17.058;2023-04-24T12:25:13;7.70;;;7.13;;
2610;SDS011;5612;51.134;17.058;2023-04-24T12:27:43;6.83;;;6.33;;
2610;SDS011;5612;51.134;17.058;2023-04-24T12:30:13;6.97;;;6.47;;
2610;SDS011;5612;51.134;17.058;2023-04-24T12:32:44;7.40;;;6.80;;
2610;SDS011;5612;51.134;17.058;2023-04-24T12:35:18;7.83;;;6.63;;
2610;SDS011;5612;51.134;17.058;2023-04-24T12:37:48;7.00;;;5.97;;
2610;SDS011;5612;51.134;17.058;2023-04-24T12:40:18;7.60;;;7.10;;
2610;SDS011;5612;51.134;17.058;2023-04-24T12:42:48;8.20;;;7.50;;
2610;SDS011;5612;51.134;17.058;2023-04-24T12:45:18;9.50;;;8.80;;
2610;SDS011;5612;51.134;17.058;2023-04-24T12:47:50;7.00;;;6.60;;
2610;SDS011;5612;51.134;17.058;2023-04-24T12:50:20;7.97;;;7.33;;
2610;SDS011;5612;51.134;17.058;2023-04-24T12:52:49;8.40;;;7.90;;
2610;SDS011;5612;51.134;17.058;2023-04-24T12:55:18;9.47;;;8.53;;
2610;SDS011;5612;51.134;17.058;2023-04-24T12:57:47;8.80;;;7.93;;
2610;SDS011;5612;51.134;17.058;2023-04-24T13:00:16;7.83;;;7.00;;
2610;SDS011;5612;51.134;17.058;2023-04-24T13:02:46;6.63;;;5.87;;
2610;SDS011;5612;51.134;17.058;2023-04-24T13:05:15;7.17;;;6.57;;
2610;SDS011;5612;51.134;17.058;2023-04-24T13:07:46;7.03;;;6.00;;
2610;SDS011;5612;51.134;17.058;2023-04-24T13:10:14;8.13;;;7.50;;
2610;SDS011;5612;51.134;17.058;2023-04-24T13:12:43;7.53;;;6.93;;
2610;SDS011;5612;51.134;17.058;2023-04-24T13:15:13;7.60;;;7.00;;
2610;SDS011;5612;51.134;17.058;2023-04-24T13:17:42;6.93;;;6.37;;
2610;SDS011;5612;51.134;17.058;2023-04-24T13:20:11;6.43;;;6.00;;
2610;SDS011;5612;51.134;17.058;2023-04-24T13:22:40;6.13;;;4.83;;
2610;SDS011;5612;51.134;17.058;2023-04-24T13:25:11;4.00;;;3.70;;
2610;SDS011;5612;51.134;17.058;2023-04-24T13:27:43;3.30;;;3.07;;
2610;SDS011;5612;51.134;17.058;2023-04-24T13:30:12;4.30;;;3.30;;
2610;SDS011;5612;51.134;17.058;2023-04-24T13:32:41;2.80;;;2.60;;
2610;SDS011;5612;51.134;17.058;2023-04-24T13:35:10;3.20;;;2.20;;
2610;SDS011;5612;51.134;17.058;2023-04-24T13:37:39;2.33;;;2.23;;
2610;SDS011;5612;51.134;17.058;2023-04-24T13:40:11;2.13;;;2.03;;
2610;SDS011;5612;51.134;17.058;2023-04-24T13:42:39;2.10;;;2.00;;
2610;SDS011;5612;51.134;17.058;2023-04-24T13:45:09;2.03;;;1.93;;
2610;SDS011;5612;51.134;17.058;2023-04-24T13:47:50;1.90;;;1.80;;
2610;SDS011;5612;51.134;17.058;2023-04-24T13:50:21;2.60;;;2.00;;
2610;SDS011;5612;51.134;17.058;2023-04-24T13:52:50;1.50;;;1.40;;
2610;SDS011;5612;51.134;17.058;2023-04-24T13:55:20;2.03;;;1.93;;
2610;SDS011;5612;51.134;17.058;2023-04-24T13:57:49;1.70;;;1.60;;
2610;SDS011;5612;51.134;17.058;2023-04-24T14:00:21;1.70;;;1.60;;
2610;SDS011;5612;51.134;17.058;2023-04-24T14:02:50;1.40;;;1.30;;
2610;SDS011;5612;51.134;17.058;2023-04-24T14:05:19;1.53;;;1.43;;
2610;SDS011;5612;51.134;17.058;2023-04-24T14:07:49;1.20;;;1.20;;
2610;SDS011;5612;51.134;17.058;2023-04-24T14:10:19;2.33;;;1.47;;
2610;SDS011;5612;51.134;17.058;2023-04-24T14:12:48;2.70;;;2.50;;
2610;SDS011;5612;51.134;17.058;2023-04-24T14:15:18;2.37;;;2.17;;
2610;SDS011;5612;51.134;17.058;2023-04-24T14:17:47;1.80;;;1.70;;
2610;SDS011;5612;51.134;17.058;2023-04-24T14:20:16;1.50;;;1.40;;
2610;SDS011;5612;51.134;17.058;2023-04-24T14:22:46;2.30;;;1.90;;
2610;SDS011;5612;51.134;17.058;2023-04-24T14:25:15;2.10;;;1.93;;
2610;SDS011;5612;51.134;17.058;2023-04-24T14:27:46;2.07;;;1.97;;
2610;SDS011;5612;51.134;17.058;2023-04-24T14:30:16;2.03;;;1.90;;
2610;SDS011;5612;51.134;17.058;2023-04-24T14:32:46;2.90;;;2.67;;
2610;SDS011;5612;51.134;17.058;2023-04-24T14:35:15;3.17;;;2.87;;
2610;SDS011;5612;51.134;17.058;2023-04-24T14:37:44;3.03;;;2.83;;
2610;SDS011;5612;51.134;17.058;2023-04-24T14:40:13;4.40;;;3.10;;
2610;SDS011;5612;51.134;17.058;2023-04-24T14:43:03;2.93;;;2.73;;
2610;SDS011;5612;51.134;17.058;2023-04-24T14:45:32;4.00;;;3.30;;
2610;SDS011;5612;51.134;17.058;2023-04-24T14:48:01;3.40;;;3.10;;
2610;SDS011;5612;51.134;17.058;2023-04-24T14:50:30;3.57;;;3.27;;
2610;SDS011;5612;51.134;17.058;2023-04-24T14:52:59;4.40;;;3.90;;
2610;SDS011;5612;51.134;17.058;2023-04-24T14:55:29;3.50;;;3.30;;
2610;SDS011;5612;51.134;17.058;2023-04-24T14:57:58;4.00;;;3.70;;
2610;SDS011;5612;51.134;17.058;2023-04-24T15:00:29;3.73;;;3.43;;
2610;SDS011;5612;51.134;17.058;2023-04-24T15:02:58;4.37;;;3.97;;
2610;SDS011;5612;51.134;17.058;2023-04-24T15:05:28;3.10;;;2.80;;